Accueil
METAR-TAF:

METAR-TAF

Aéroports :

Aéroport international de Bagdad

Bagdad, Irak

latitude: 33-15-45N, longitude: 44-14-04E, altitude: 35 m

Observation

Le bulletin a été fait il y a 43 minutes, à 04:00 UTC
Vent 4 kt de nord-ouest
Température 11°C
Humidité 87%
Pression 1020 hPa
Visibilité 10 km ou plus
pas de nuages en-dessous de 1500 mètres et pas de cumulonimbus.

METAR: ORBI 190400Z 31004KT CAVOK 11/09 Q1020 NOSIG

Heure: 07:43 (04:43 UTC)

Prévision

Le bulletin a été fait il y a 6 heures et 43 minutes, à 22:00 UTC
Prévision valable du 19 à 00 UTC au 19 à 24 UTC
Vent 6 kt de nord-ouest
Visibilité: 6000 m

TAF: ORBI 182200Z 1900/1924 32006KT 6000 NSC

Observations et prévisions météorologiques de plus de 4000 aéroports (messages METAR et TAF).

Les stations disponibles sont représentées par des disques jaunes et rouges sur la carte.

Passer la souris dessus pour voir le nom de la station.

Cliquer dessus pour voir les observations et prévisions météorologiques.

Pour changer de carte: cliquez sur les boutons verts avec une croix noire pour zoomer, sur le bouton vert avec un tiret pour effectuer un zoom arrière, ou sur les flèches vertes pour les cartes adjacentes.


METAR-TAF: